Georg Jacob — A8XG5 — position and weather

sailwx.info

Track history (hours):
 
Tides and Currents Weather Stations Pressure Air Temp Water Temp Dewpoint Dewpoint Depression Visibility Wind Speed Wind Dir Waves Ship Positions

Georg Jacob

Last reported at 2015-Jan-24 10:17 UTC. Time now 2015-Jan-27 17:01 UTC.
Position N 39°48' E 025°56'.

Length 229 m; draft 8.5 m.

Type: Tanker. MMSI: 636092136.

Date/timePositionNaut miles runAvg speedWind from/ knotsBaromVisibWave heightAir tempDewpointWater temp
2015-Jan-24 10:17N 39°48' E 025°56'7 9.3
2015-Jan-24 09:29N 39°44' E 025°48'1512.3
2015-Jan-24 08:15N 39°30' E 025°40'69 8.6
2015-Jan-24 00:15N 38°52' E 026°55'  
2015-Jan-17 05:30N 37°41' E 024°14'3410.7
2015-Jan-17 02:19N 37°08' E 024°07'44410.1
2015-Jan-15 06:31N 36°08' E 014°58'1111.4
2015-Jan-15 05:33N 36°12' E 014°45'1111.1
2015-Jan-15 04:33N 36°17' E 014°32'1110.8
2015-Jan-15 03:33N 36°20' E 014°20'1110.9
2015-Jan-15 02:33N 36°24' E 014°07'1111.4
2015-Jan-15 01:33N 36°28' E 013°54'1211.8
2015-Jan-15 00:33N 36°32' E 013°40'1211.6
2015-Jan-14 23:33N 36°36' E 013°26'1111.2
2015-Jan-14 22:33N 36°39' E 013°13'1611.5
2015-Jan-14 21:12N 36°44' E 012°54'811.7
2015-Jan-14 20:31N 36°47' E 012°45'9511.6
2015-Jan-14 12:22N 37°28' E 010°58'1211.0
2015-Jan-14 11:16N 37°32' E 010°43'811.8
2015-Jan-14 10:34N 37°33' E 010°33'  
Track history (hours):
 
Tides and Currents Weather Stations Pressure Air Temp Water Temp Dewpoint Dewpoint Depression Visibility Wind Speed Wind Dir Waves Ship Positions

Georg Jacob

Last reported at 2015-Jan-24 10:17 UTC. Time now 2015-Jan-27 17:01 UTC.
Position N 39°48' E 025°56'.

Length 229 m; draft 8.5 m.

Type: Tanker. MMSI: 636092136.

Date/timePositionNaut miles runAvg speedWind from/ knotsBaromVisibWave heightAir tempDewpointWater temp
2015-Jan-24 10:17N 39°48' E 025°56'7 9.3
2015-Jan-24 09:29N 39°44' E 025°48'1512.3
2015-Jan-24 08:15N 39°30' E 025°40'69 8.6
2015-Jan-24 00:15N 38°52' E 026°55'  
2015-Jan-17 05:30N 37°41' E 024°14'3410.7
2015-Jan-17 02:19N 37°08' E 024°07'44410.1
2015-Jan-15 06:31N 36°08' E 014°58'1111.4
2015-Jan-15 05:33N 36°12' E 014°45'1111.1
2015-Jan-15 04:33N 36°17' E 014°32'1110.8
2015-Jan-15 03:33N 36°20' E 014°20'1110.9
2015-Jan-15 02:33N 36°24' E 014°07'1111.4
2015-Jan-15 01:33N 36°28' E 013°54'1211.8
2015-Jan-15 00:33N 36°32' E 013°40'1211.6
2015-Jan-14 23:33N 36°36' E 013°26'1111.2
2015-Jan-14 22:33N 36°39' E 013°13'1611.5
2015-Jan-14 21:12N 36°44' E 012°54'811.7
2015-Jan-14 20:31N 36°47' E 012°45'9511.6
2015-Jan-14 12:22N 37°28' E 010°58'1211.0
2015-Jan-14 11:16N 37°32' E 010°43'811.8
2015-Jan-14 10:34N 37°33' E 010°33'  

Dump ship's entire track history